sensor_id;sensor_type;location;lat;lon;timestamp;pressure;altitude;pressure_sealevel;temperature;humidity
6425;BME280;12193;42.642;23.384;2023-04-15T00:01:47;93645.56;;;6.91;87.59
6425;BME280;12193;42.642;23.384;2023-04-15T00:04:17;93641.75;;;7.26;83.58
6425;BME280;12193;42.642;23.384;2023-04-15T03:08:40;93694.28;;;5.68;100.00
6425;BME280;12193;42.642;23.384;2023-04-15T03:11:10;93700.41;;;5.67;100.00
6425;BME280;12193;42.642;23.384;2023-04-15T03:13:40;93690.66;;;5.97;100.00
6425;BME280;12193;42.642;23.384;2023-04-15T03:16:09;93687.47;;;5.88;100.00
6425;BME280;12193;42.642;23.384;2023-04-15T03:18:38;93702.69;;;5.83;100.00
6425;BME280;12193;42.642;23.384;2023-04-15T03:21:08;93710.47;;;5.56;100.00
6425;BME280;12193;42.642;23.384;2023-04-15T03:23:40;93717.97;;;5.51;100.00
6425;BME280;12193;42.642;23.384;2023-04-15T03:26:09;93716.38;;;5.50;100.00
6425;BME280;12193;42.642;23.384;2023-04-15T03:28:38;93714.47;;;5.31;100.00
6425;BME280;12193;42.642;23.384;2023-04-15T03:31:08;93715.19;;;5.52;100.00
6425;BME280;12193;42.642;23.384;2023-04-15T03:33:37;93723.19;;;5.64;100.00
6425;BME280;12193;42.642;23.384;2023-04-15T03:36:07;93726.56;;;5.64;100.00
6425;BME280;12193;42.642;23.384;2023-04-15T03:38:38;93725.47;;;5.46;100.00
6425;BME280;12193;42.642;23.384;2023-04-15T03:41:08;93728.13;;;5.31;100.00
6425;BME280;12193;42.642;23.384;2023-04-15T03:43:38;93731.84;;;5.50;100.00
6425;BME280;12193;42.642;23.384;2023-04-15T03:46:07;93727.72;;;5.62;100.00
6425;BME280;12193;42.642;23.384;2023-04-15T03:48:37;93737.91;;;5.70;100.00
6425;BME280;12193;42.642;23.384;2023-04-15T03:51:06;93757.63;;;5.56;100.00
6425;BME280;12193;42.642;23.384;2023-04-15T03:53:36;93744.25;;;5.67;100.00
6425;BME280;12193;42.642;23.384;2023-04-15T03:56:08;93748.53;;;5.88;100.00
6425;BME280;12193;42.642;23.384;2023-04-15T03:58:37;93747.03;;;6.06;100.00
6425;BME280;12193;42.642;23.384;2023-04-15T04:01:07;93747.19;;;5.98;100.00
6425;BME280;12193;42.642;23.384;2023-04-15T04:03:36;93748.00;;;5.99;100.00
6425;BME280;12193;42.642;23.384;2023-04-15T04:06:06;93751.59;;;6.04;100.00
6425;BME280;12193;42.642;23.384;2023-04-15T04:08:37;93756.28;;;6.28;100.00
6425;BME280;12193;42.642;23.384;2023-04-15T04:11:09;93759.88;;;6.40;100.00
6425;BME280;12193;42.642;23.384;2023-04-15T04:13:39;93758.88;;;6.41;100.00
6425;BME280;12193;42.642;23.384;2023-04-15T04:16:08;93760.09;;;6.51;100.00
6425;BME280;12193;42.642;23.384;2023-04-15T04:18:38;93751.16;;;6.47;100.00
6425;BME280;12193;42.642;23.384;2023-04-15T04:21:07;93761.88;;;6.44;100.00
6425;BME280;12193;42.642;23.384;2023-04-15T04:23:36;93765.44;;;6.43;100.00
6425;BME280;12193;42.642;23.384;2023-04-15T04:26:06;93763.91;;;6.62;100.00
6425;BME280;12193;42.642;23.384;2023-04-15T04:28:38;93760.97;;;6.78;100.00
6425;BME280;12193;42.642;23.384;2023-04-15T04:31:07;93754.25;;;6.90;100.00
6425;BME280;12193;42.642;23.384;2023-04-15T04:33:37;93764.34;;;6.78;100.00
6425;BME280;12193;42.642;23.384;2023-04-15T04:36:07;93765.19;;;6.92;100.00
6425;BME280;12193;42.642;23.384;2023-04-15T04:38:36;93757.44;;;7.18;100.00
6425;BME280;12193;42.642;23.384;2023-04-15T04:41:06;93759.06;;;7.31;100.00
6425;BME280;12193;42.642;23.384;2023-04-15T04:43:38;93765.81;;;7.39;100.00
6425;BME280;12193;42.642;23.384;2023-04-15T04:46:08;93773.16;;;7.42;100.00
6425;BME280;12193;42.642;23.384;2023-04-15T04:48:37;93775.53;;;7.50;100.00
6425;BME280;12193;42.642;23.384;2023-04-15T04:51:07;93769.16;;;7.72;100.00
6425;BME280;12193;42.642;23.384;2023-04-15T04:53:36;93769.13;;;7.91;100.00
6425;BME280;12193;42.642;23.384;2023-04-15T04:56:06;93777.06;;;7.96;100.00
6425;BME280;12193;42.642;23.384;2023-04-15T04:58:38;93785.78;;;8.15;100.00
6425;BME280;12193;42.642;23.384;2023-04-15T05:01:07;93784.19;;;8.33;100.00
6425;BME280;12193;42.642;23.384;2023-04-15T05:03:37;93786.81;;;8.64;100.00
6425;BME280;12193;42.642;23.384;2023-04-15T05:06:06;93791.53;;;9.17;100.00
6425;BME280;12193;42.642;23.384;2023-04-15T05:08:36;93793.38;;;9.04;98.34
6425;BME280;12193;42.642;23.384;2023-04-15T05:11:06;93806.16;;;8.68;99.89
6425;BME280;12193;42.642;23.384;2023-04-15T05:13:38;93821.03;;;8.79;99.87
6425;BME280;12193;42.642;23.384;2023-04-15T05:16:07;93820.38;;;8.90;98.18
6425;BME280;12193;42.642;23.384;2023-04-15T05:18:37;93831.06;;;8.62;96.15
6425;BME280;12193;42.642;23.384;2023-04-15T05:21:06;93817.97;;;8.51;97.63
6425;BME280;12193;42.642;23.384;2023-04-15T05:23:36;93824.75;;;8.89;97.28
6425;BME280;12193;42.642;23.384;2023-04-15T05:26:06;93832.59;;;9.20;93.80
6425;BME280;12193;42.642;23.384;2023-04-15T05:28:38;93822.03;;;9.95;87.61
6425;BME280;12193;42.642;23.384;2023-04-15T05:31:08;93830.06;;;10.71;81.18
6425;BME280;12193;42.642;23.384;2023-04-15T05:33:37;93829.28;;;11.88;74.75
6425;BME280;12193;42.642;23.384;2023-04-15T05:36:06;93820.59;;;12.17;72.24
6425;BME280;12193;42.642;23.384;2023-04-15T05:38:36;93822.34;;;12.74;67.39
6425;BME280;12193;42.642;23.384;2023-04-15T05:41:05;93812.31;;;12.09;69.37
6425;BME280;12193;42.642;23.384;2023-04-15T05:43:37;93815.00;;;13.38;65.00
6425;BME280;12193;42.642;23.384;2023-04-15T05:46:07;93819.25;;;14.16;60.63
6425;BME280;12193;42.642;23.384;2023-04-15T05:48:36;93813.91;;;12.33;66.40
6425;BME280;12193;42.642;23.384;2023-04-15T05:51:06;93819.56;;;12.30;68.25
6425;BME280;12193;42.642;23.384;2023-04-15T05:53:35;93824.19;;;12.62;70.18
6425;BME280;12193;42.642;23.384;2023-04-15T05:56:07;93825.84;;;12.79;72.30
6425;BME280;12193;42.642;23.384;2023-04-15T05:58:39;93824.81;;;13.31;63.93
6425;BME280;12193;42.642;23.384;2023-04-15T06:01:08;93829.88;;;12.25;66.71
6425;BME280;12193;42.642;23.384;2023-04-15T06:03:37;93834.13;;;12.76;64.70
6425;BME280;12193;42.642;23.384;2023-04-15T06:06:07;93842.97;;;12.64;64.92
6425;BME280;12193;42.642;23.384;2023-04-15T06:08:36;93836.69;;;13.11;63.57
6425;BME280;12193;42.642;23.384;2023-04-15T06:11:05;93843.44;;;13.23;63.21
6425;BME280;12193;42.642;23.384;2023-04-15T06:13:38;93851.09;;;13.41;63.61
6425;BME280;12193;42.642;23.384;2023-04-15T06:16:08;93851.66;;;13.71;62.34
6425;BME280;12193;42.642;23.384;2023-04-15T06:18:37;93840.34;;;12.98;66.28
6425;BME280;12193;42.642;23.384;2023-04-15T06:21:07;93843.16;;;15.00;57.83
6425;BME280;12193;42.642;23.384;2023-04-15T06:23:37;93836.03;;;14.74;58.15
6425;BME280;12193;42.642;23.384;2023-04-15T06:26:06;93836.59;;;14.22;59.08
6425;BME280;12193;42.642;23.384;2023-04-15T06:28:39;93844.84;;;13.86;60.80
6425;BME280;12193;42.642;23.384;2023-04-15T06:31:08;93846.19;;;13.72;61.54
6425;BME280;12193;42.642;23.384;2023-04-15T06:33:37;93844.63;;;14.04;61.55
6425;BME280;12193;42.642;23.384;2023-04-15T06:36:07;93848.13;;;15.66;56.03
6425;BME280;12193;42.642;23.384;2023-04-15T06:38:36;93854.31;;;15.34;56.00
6425;BME280;12193;42.642;23.384;2023-04-15T06:41:05;93859.13;;;16.52;52.06
6425;BME280;12193;42.642;23.384;2023-04-15T06:43:37;93856.53;;;16.26;50.30
6425;BME280;12193;42.642;23.384;2023-04-15T06:46:07;93862.22;;;16.44;50.12
6425;BME280;12193;42.642;23.384;2023-04-15T06:48:37;93860.66;;;16.43;48.71
6425;BME280;12193;42.642;23.384;2023-04-15T06:51:06;93862.53;;;15.63;50.71
6425;BME280;12193;42.642;23.384;2023-04-15T06:53:35;93869.59;;;15.89;50.73
6425;BME280;12193;42.642;23.384;2023-04-15T06:56:07;93873.97;;;15.84;51.89
6425;BME280;12193;42.642;23.384;2023-04-15T06:58:39;93874.59;;;16.22;49.81
6425;BME280;12193;42.642;23.384;2023-04-15T07:01:08;93876.50;;;16.00;50.99
6425;BME280;12193;42.642;23.384;2023-04-15T07:03:39;93874.25;;;14.97;53.22
6425;BME280;12193;42.642;23.384;2023-04-15T07:06:08;93872.66;;;15.34;51.95
6425;BME280;12193;42.642;23.384;2023-04-15T07:08:38;93869.13;;;14.85;52.93
6425;BME280;12193;42.642;23.384;2023-04-15T07:11:08;93876.78;;;15.08;52.61
6425;BME280;12193;42.642;23.384;2023-04-15T07:13:40;93880.63;;;14.84;52.88
6425;BME280;12193;42.642;23.384;2023-04-15T07:16:09;93882.03;;;15.77;50.38
6425;BME280;12193;42.642;23.384;2023-04-15T07:18:39;93872.06;;;17.61;45.87
6425;BME280;12193;42.642;23.384;2023-04-15T07:21:08;93868.66;;;17.66;44.72
6425;BME280;12193;42.642;23.384;2023-04-15T07:23:38;93866.16;;;16.83;46.86
6425;BME280;12193;42.642;23.384;2023-04-15T07:26:07;93869.19;;;16.02;49.38
6425;BME280;12193;42.642;23.384;2023-04-15T07:28:40;93862.81;;;16.56;48.67
6425;BME280;12193;42.642;23.384;2023-04-15T07:31:11;93873.06;;;15.95;50.42
6425;BME280;12193;42.642;23.384;2023-04-15T07:33:41;93872.50;;;16.87;48.83
6425;BME280;12193;42.642;23.384;2023-04-15T07:36:10;93874.78;;;17.25;46.89
6425;BME280;12193;42.642;23.384;2023-04-15T07:38:40;93877.63;;;17.13;48.13
6425;BME280;12193;42.642;23.384;2023-04-15T07:41:10;93870.38;;;15.21;53.52
6425;BME280;12193;42.642;23.384;2023-04-15T07:43:42;93873.06;;;15.47;52.43
6425;BME280;12193;42.642;23.384;2023-04-15T07:46:12;93874.03;;;15.89;53.07
6425;BME280;12193;42.642;23.384;2023-04-15T07:48:41;93875.38;;;16.23;49.96
6425;BME280;12193;42.642;23.384;2023-04-15T07:51:10;93877.25;;;15.96;51.04
6425;BME280;12193;42.642;23.384;2023-04-15T07:53:39;93879.25;;;13.95;58.45
6425;BME280;12193;42.642;23.384;2023-04-15T07:56:09;93899.38;;;14.27;57.92
6425;BME280;12193;42.642;23.384;2023-04-15T07:58:42;93888.97;;;14.81;55.38
6425;BME280;12193;42.642;23.384;2023-04-15T08:01:11;93901.97;;;16.31;51.68
6425;BME280;12193;42.642;23.384;2023-04-15T08:03:41;93895.88;;;16.93;48.46
6425;BME280;12193;42.642;23.384;2023-04-15T08:06:10;93897.06;;;16.71;47.31
6425;BME280;12193;42.642;23.384;2023-04-15T08:08:39;93896.38;;;16.90;46.60
6425;BME280;12193;42.642;23.384;2023-04-15T08:11:09;93891.59;;;15.41;50.90
6425;BME280;12193;42.642;23.384;2023-04-15T08:13:41;93888.34;;;16.66;48.03
6425;BME280;12193;42.642;23.384;2023-04-15T08:16:16;93893.84;;;16.64;47.04
6425;BME280;12193;42.642;23.384;2023-04-15T08:18:47;93892.81;;;17.53;45.39
6425;BME280;12193;42.642;23.384;2023-04-15T08:21:17;93898.44;;;16.21;44.91
6425;BME280;12193;42.642;23.384;2023-04-15T08:23:49;93889.28;;;16.86;45.31
6425;BME280;12193;42.642;23.384;2023-04-15T08:26:20;93894.44;;;16.08;45.96
6425;BME280;12193;42.642;23.384;2023-04-15T08:28:52;93888.81;;;15.73;46.80
6425;BME280;12193;42.642;23.384;2023-04-15T08:31:22;93895.56;;;16.85;43.23
6425;BME280;12193;42.642;23.384;2023-04-15T08:33:52;93883.41;;;17.15;41.94
6425;BME280;12193;42.642;23.384;2023-04-15T08:36:21;93875.63;;;18.41;40.91
6425;BME280;12193;42.642;23.384;2023-04-15T08:38:52;93880.38;;;18.49;41.10
6425;BME280;12193;42.642;23.384;2023-04-15T08:41:22;93877.75;;;18.69;42.73
6425;BME280;12193;42.642;23.384;2023-04-15T08:43:56;93877.72;;;18.59;40.48
6425;BME280;12193;42.642;23.384;2023-04-15T08:46:26;93879.72;;;17.68;42.48
6425;BME280;12193;42.642;23.384;2023-04-15T08:48:57;93870.28;;;17.81;41.51
6425;BME280;12193;42.642;23.384;2023-04-15T08:51:27;93872.13;;;17.86;42.19
6425;BME280;12193;42.642;23.384;2023-04-15T08:53:57;93872.75;;;17.37;41.39
6425;BME280;12193;42.642;23.384;2023-04-15T08:56:27;93868.53;;;18.57;40.94
6425;BME280;12193;42.642;23.384;2023-04-15T08:59:01;93869.00;;;18.04;42.21
6425;BME280;12193;42.642;23.384;2023-04-15T09:01:31;93864.84;;;16.85;43.54
6425;BME280;12193;42.642;23.384;2023-04-15T09:04:01;93866.03;;;16.63;43.31
6425;BME280;12193;42.642;23.384;2023-04-15T09:06:33;93866.66;;;18.22;39.25
6425;BME280;12193;42.642;23.384;2023-04-15T09:09:03;93854.31;;;18.63;38.64
6425;BME280;12193;42.642;23.384;2023-04-15T09:11:32;93857.97;;;18.77;38.49
6425;BME280;12193;42.642;23.384;2023-04-15T09:14:04;93844.69;;;19.31;34.73
6425;BME280;12193;42.642;23.384;2023-04-15T09:16:58;93829.03;;;18.47;35.09
6425;BME280;12193;42.642;23.384;2023-04-15T09:19:28;93825.28;;;18.92;35.36
6425;BME280;12193;42.642;23.384;2023-04-15T09:21:58;93829.28;;;17.85;36.46
6425;BME280;12193;42.642;23.384;2023-04-15T09:24:35;93843.75;;;18.08;34.83
6425;BME280;12193;42.642;23.384;2023-04-15T09:27:06;93833.78;;;18.45;34.14
6425;BME280;12193;42.642;23.384;2023-04-15T09:29:38;93846.66;;;18.11;34.45
6425;BME280;12193;42.642;23.384;2023-04-15T09:32:10;93845.88;;;18.01;34.54
6425;BME280;12193;42.642;23.384;2023-04-15T09:34:41;93851.59;;;16.61;36.11
6425;BME280;12193;42.642;23.384;2023-04-15T09:37:11;93846.59;;;17.10;35.79
6425;BME280;12193;42.642;23.384;2023-04-15T09:39:47;93839.19;;;17.49;34.98
6425;BME280;12193;42.642;23.384;2023-04-15T09:42:17;93838.91;;;17.50;35.22
6425;BME280;12193;42.642;23.384;2023-04-15T09:44:52;93844.31;;;17.24;35.24
6425;BME280;12193;42.642;23.384;2023-04-15T09:47:28;93840.97;;;17.38;36.61
6425;BME280;12193;42.642;23.384;2023-04-15T09:49:59;93848.00;;;17.28;35.63
6425;BME280;12193;42.642;23.384;2023-04-15T09:52:28;93850.22;;;16.94;36.77
6425;BME280;12193;42.642;23.384;2023-04-15T09:54:59;93848.03;;;18.44;33.62
6425;BME280;12193;42.642;23.384;2023-04-15T09:57:33;93848.91;;;19.27;31.88
6425;BME280;12193;42.642;23.384;2023-04-15T10:00:07;93841.63;;;18.89;32.17
6425;BME280;12193;42.642;23.384;2023-04-15T10:02:37;93841.34;;;17.72;34.98
6425;BME280;12193;42.642;23.384;2023-04-15T10:05:10;93837.19;;;16.68;37.03
6425;BME280;12193;42.642;23.384;2023-04-15T10:07:39;93837.25;;;16.78;37.16
6425;BME280;12193;42.642;23.384;2023-04-15T10:10:10;93839.97;;;16.98;36.94
6425;BME280;12193;42.642;23.384;2023-04-15T10:12:40;93838.34;;;17.38;35.80
6425;BME280;12193;42.642;23.384;2023-04-15T10:15:15;93832.28;;;17.33;36.25
6425;BME280;12193;42.642;23.384;2023-04-15T10:17:47;93830.78;;;17.57;35.55
6425;BME280;12193;42.642;23.384;2023-04-15T10:20:18;93821.38;;;17.80;34.51
6425;BME280;12193;42.642;23.384;2023-04-15T10:22:48;93812.44;;;17.96;34.15
6425;BME280;12193;42.642;23.384;2023-04-15T10:25:19;93792.84;;;19.02;32.58
6425;BME280;12193;42.642;23.384;2023-04-15T10:27:49;93796.84;;;20.06;31.12
6425;BME280;12193;42.642;23.384;2023-04-15T10:30:22;93795.91;;;20.82;29.87
6425;BME280;12193;42.642;23.384;2023-04-15T10:32:52;93796.78;;;19.14;31.68
6425;BME280;12193;42.642;23.384;2023-04-15T10:35:22;93797.94;;;19.57;31.48
6425;BME280;12193;42.642;23.384;2023-04-15T10:37:52;93811.16;;;18.39;32.42
6425;BME280;12193;42.642;23.384;2023-04-15T10:40:28;93794.81;;;18.47;33.25
6425;BME280;12193;42.642;23.384;2023-04-15T10:42:58;93798.41;;;19.05;32.97
6425;BME280;12193;42.642;23.384;2023-04-15T10:45:33;93804.84;;;19.38;32.65
6425;BME280;12193;42.642;23.384;2023-04-15T10:48:03;93802.97;;;18.60;33.35
6425;BME280;12193;42.642;23.384;2023-04-15T10:50:36;93797.66;;;18.85;32.82
6425;BME280;12193;42.642;23.384;2023-04-15T10:53:05;93801.13;;;18.46;33.04
6425;BME280;12193;42.642;23.384;2023-04-15T10:55:38;93792.97;;;18.57;33.25
6425;BME280;12193;42.642;23.384;2023-04-15T10:58:08;93794.56;;;19.46;32.26
6425;BME280;12193;42.642;23.384;2023-04-15T11:00:49;93794.84;;;17.97;32.65
6425;BME280;12193;42.642;23.384;2023-04-15T11:03:35;93791.50;;;20.11;29.85
6425;BME280;12193;42.642;23.384;2023-04-15T11:06:05;93793.22;;;20.87;29.06
6425;BME280;12193;42.642;23.384;2023-04-15T11:08:53;93797.75;;;19.33;30.34
6425;BME280;12193;42.642;23.384;2023-04-15T11:14:23;93793.19;;;19.92;30.30
6425;BME280;12193;42.642;23.384;2023-04-15T11:16:55;93783.88;;;19.08;31.88
6425;BME280;12193;42.642;23.384;2023-04-15T11:19:24;93789.72;;;18.95;32.21
6425;BME280;12193;42.642;23.384;2023-04-15T11:21:53;93792.13;;;18.82;32.22
6425;BME280;12193;42.642;23.384;2023-04-15T11:24:23;93788.50;;;19.41;32.09
6425;BME280;12193;42.642;23.384;2023-04-15T11:26:56;93784.22;;;19.55;31.48
6425;BME280;12193;42.642;23.384;2023-04-15T11:29:28;93786.91;;;19.40;31.58
6425;BME280;12193;42.642;23.384;2023-04-15T11:32:07;93789.88;;;19.28;32.19
6425;BME280;12193;42.642;23.384;2023-04-15T11:34:37;93787.50;;;19.80;30.53
6425;BME280;12193;42.642;23.384;2023-04-15T11:37:07;93786.69;;;19.36;31.80
6425;BME280;12193;42.642;23.384;2023-04-15T11:39:36;93787.28;;;19.08;31.81
6425;BME280;12193;42.642;23.384;2023-04-15T11:42:16;93784.25;;;18.82;32.63
6425;BME280;12193;42.642;23.384;2023-04-15T11:44:46;93778.16;;;19.92;31.41
6425;BME280;12193;42.642;23.384;2023-04-15T11:47:24;93775.53;;;18.81;31.71
6425;BME280;12193;42.642;23.384;2023-04-15T11:49:53;93771.00;;;18.96;32.39
6425;BME280;12193;42.642;23.384;2023-04-15T11:52:23;93776.75;;;19.08;30.65
6425;BME280;12193;42.642;23.384;2023-04-15T11:55:02;93762.22;;;19.26;30.89
6425;BME280;12193;42.642;23.384;2023-04-15T11:57:31;93777.63;;;18.84;31.07
6425;BME280;12193;42.642;23.384;2023-04-15T12:00:03;93777.97;;;18.58;31.67
6425;BME280;12193;42.642;23.384;2023-04-15T12:02:38;93777.16;;;18.57;31.21
6425;BME280;12193;42.642;23.384;2023-04-15T12:05:08;93777.72;;;18.44;32.13
6425;BME280;12193;42.642;23.384;2023-04-15T12:07:58;93767.09;;;18.89;31.70
6425;BME280;12193;42.642;23.384;2023-04-15T12:10:30;93768.47;;;18.67;30.82
6425;BME280;12193;42.642;23.384;2023-04-15T12:12:59;93770.31;;;18.61;31.23
6425;BME280;12193;42.642;23.384;2023-04-15T12:15:28;93769.66;;;19.09;31.06
6425;BME280;12193;42.642;23.384;2023-04-15T12:18:01;93773.56;;;19.70;30.08
6425;BME280;12193;42.642;23.384;2023-04-15T12:20:30;93758.06;;;19.63;30.06
6425;BME280;12193;42.642;23.384;2023-04-15T12:23:04;93765.63;;;19.26;30.54
6425;BME280;12193;42.642;23.384;2023-04-15T12:25:34;93769.13;;;19.65;29.32
6425;BME280;12193;42.642;23.384;2023-04-15T12:28:10;93766.53;;;19.60;29.54
6425;BME280;12193;42.642;23.384;2023-04-15T12:30:47;93771.50;;;19.18;29.42
6425;BME280;12193;42.642;23.384;2023-04-15T12:33:20;93764.91;;;19.16;29.59
6425;BME280;12193;42.642;23.384;2023-04-15T12:35:49;93767.47;;;19.36;27.66
6425;BME280;12193;42.642;23.384;2023-04-15T12:38:19;93776.34;;;19.45;27.68
6425;BME280;12193;42.642;23.384;2023-04-15T12:40:48;93778.03;;;19.31;27.19
6425;BME280;12193;42.642;23.384;2023-04-15T12:43:18;93774.41;;;19.02;27.36
6425;BME280;12193;42.642;23.384;2023-04-15T12:45:47;93776.50;;;19.10;27.87
6425;BME280;12193;42.642;23.384;2023-04-15T12:48:16;93777.16;;;18.72;27.44
6425;BME280;12193;42.642;23.384;2023-04-15T12:50:48;93782.72;;;18.61;28.17
6425;BME280;12193;42.642;23.384;2023-04-15T12:53:17;93784.25;;;18.72;27.40
6425;BME280;12193;42.642;23.384;2023-04-15T12:55:47;93777.72;;;18.54;27.91
6425;BME280;12193;42.642;23.384;2023-04-15T12:58:16;93787.56;;;19.12;28.19
6425;BME280;12193;42.642;23.384;2023-04-15T13:00:45;93787.94;;;18.76;27.79
6425;BME280;12193;42.642;23.384;2023-04-15T13:03:15;93780.25;;;18.94;28.27
6425;BME280;12193;42.642;23.384;2023-04-15T13:05:44;93777.91;;;19.56;28.06
6425;BME280;12193;42.642;23.384;2023-04-15T13:08:17;93777.59;;;19.62;27.81
6425;BME280;12193;42.642;23.384;2023-04-15T13:10:47;93779.94;;;19.64;27.59
6425;BME280;12193;42.642;23.384;2023-04-15T13:13:16;93780.06;;;19.44;27.22
6425;BME280;12193;42.642;23.384;2023-04-15T13:15:45;93769.81;;;19.32;26.78
6425;BME280;12193;42.642;23.384;2023-04-15T13:18:15;93774.41;;;19.65;26.51
6425;BME280;12193;42.642;23.384;2023-04-15T13:20:44;93772.53;;;19.66;26.98
6425;BME280;12193;42.642;23.384;2023-04-15T13:23:16;93774.31;;;19.75;27.31
6425;BME280;12193;42.642;23.384;2023-04-15T13:25:45;93764.78;;;18.68;28.43
6425;BME280;12193;42.642;23.384;2023-04-15T13:28:15;93761.81;;;18.94;28.24
6425;BME280;12193;42.642;23.384;2023-04-15T13:30:44;93762.41;;;19.44;28.14
6425;BME280;12193;42.642;23.384;2023-04-15T13:33:16;93758.63;;;19.55;27.08
6425;BME280;12193;42.642;23.384;2023-04-15T13:35:45;93767.56;;;19.64;26.28
6425;BME280;12193;42.642;23.384;2023-04-15T13:38:17;93761.75;;;20.00;27.94
6425;BME280;12193;42.642;23.384;2023-04-15T13:40:47;93761.75;;;20.00;26.30
6425;BME280;12193;42.642;23.384;2023-04-15T13:43:16;93755.38;;;19.68;26.53
6425;BME280;12193;42.642;23.384;2023-04-15T13:45:46;93773.28;;;19.33;26.59
6425;BME280;12193;42.642;23.384;2023-04-15T13:48:16;93764.41;;;19.14;27.03
6425;BME280;12193;42.642;23.384;2023-04-15T13:50:45;93763.25;;;19.35;27.31
6425;BME280;12193;42.642;23.384;2023-04-15T13:53:17;93766.66;;;19.30;27.15
6425;BME280;12193;42.642;23.384;2023-04-15T13:55:47;93762.22;;;19.26;26.39
6425;BME280;12193;42.642;23.384;2023-04-15T13:58:16;93762.75;;;19.23;26.68
6425;BME280;12193;42.642;23.384;2023-04-15T14:00:46;93758.88;;;19.59;25.88
6425;BME280;12193;42.642;23.384;2023-04-15T14:03:15;93756.00;;;19.93;25.55
6425;BME280;12193;42.642;23.384;2023-04-15T14:05:44;93750.00;;;19.83;25.77
6425;BME280;12193;42.642;23.384;2023-04-15T14:08:21;93749.34;;;19.19;26.21
6425;BME280;12193;42.642;23.384;2023-04-15T14:10:50;93750.16;;;19.63;26.06
6425;BME280;12193;42.642;23.384;2023-04-15T14:13:20;93756.50;;;19.57;26.39
6425;BME280;12193;42.642;23.384;2023-04-15T14:15:49;93751.97;;;19.09;26.56
6425;BME280;12193;42.642;23.384;2023-04-15T14:18:18;93759.59;;;18.13;27.10
6425;BME280;12193;42.642;23.384;2023-04-15T14:20:48;93758.28;;;18.30;27.17
6425;BME280;12193;42.642;23.384;2023-04-15T14:23:20;93757.16;;;18.71;27.21
6425;BME280;12193;42.642;23.384;2023-04-15T14:25:49;93764.00;;;18.72;27.26
6425;BME280;12193;42.642;23.384;2023-04-15T14:28:19;93752.13;;;18.80;27.25
6425;BME280;12193;42.642;23.384;2023-04-15T14:30:48;93748.66;;;18.94;27.43
6425;BME280;12193;42.642;23.384;2023-04-15T14:33:18;93753.22;;;18.59;27.87
6425;BME280;12193;42.642;23.384;2023-04-15T14:35:48;93752.72;;;18.47;27.62
6425;BME280;12193;42.642;23.384;2023-04-15T14:38:23;93754.53;;;18.66;27.68
6425;BME280;12193;42.642;23.384;2023-04-15T14:40:52;93756.06;;;18.77;28.01
6425;BME280;12193;42.642;23.384;2023-04-15T14:43:22;93753.94;;;18.79;27.62
6425;BME280;12193;42.642;23.384;2023-04-15T14:45:51;93754.22;;;18.73;28.06
6425;BME280;12193;42.642;23.384;2023-04-15T14:48:21;93760.09;;;18.10;28.98
6425;BME280;12193;42.642;23.384;2023-04-15T14:50:50;93756.97;;;18.33;28.93
6425;BME280;12193;42.642;23.384;2023-04-15T14:53:23;93764.06;;;17.92;28.69
6425;BME280;12193;42.642;23.384;2023-04-15T14:55:52;93759.06;;;18.16;29.60
6425;BME280;12193;42.642;23.384;2023-04-15T14:58:21;93757.25;;;18.26;28.67
6425;BME280;12193;42.642;23.384;2023-04-15T15:00:51;93760.63;;;17.92;29.30
6425;BME280;12193;42.642;23.384;2023-04-15T15:03:20;93771.41;;;17.80;29.11
6425;BME280;12193;42.642;23.384;2023-04-15T15:05:50;93763.78;;;17.59;29.69
6425;BME280;12193;42.642;23.384;2023-04-15T15:08:22;93748.81;;;17.70;29.68
6425;BME280;12193;42.642;23.384;2023-04-15T15:10:52;93752.75;;;17.77;29.19
6425;BME280;12193;42.642;23.384;2023-04-15T15:13:22;93752.22;;;17.90;29.60
6425;BME280;12193;42.642;23.384;2023-04-15T15:15:51;93750.13;;;17.97;29.78
6425;BME280;12193;42.642;23.384;2023-04-15T15:18:20;93754.59;;;18.06;30.21
6425;BME280;12193;42.642;23.384;2023-04-15T15:20:50;93747.75;;;18.00;30.30
6425;BME280;12193;42.642;23.384;2023-04-15T15:23:22;93744.59;;;17.98;29.98
6425;BME280;12193;42.642;23.384;2023-04-15T15:25:51;93745.13;;;17.85;30.27
6425;BME280;12193;42.642;23.384;2023-04-15T15:28:21;93748.00;;;17.69;30.66
6425;BME280;12193;42.642;23.384;2023-04-15T15:30:50;93737.22;;;17.66;30.71
6425;BME280;12193;42.642;23.384;2023-04-15T15:33:19;93750.38;;;17.71;30.47
6425;BME280;12193;42.642;23.384;2023-04-15T15:35:49;93746.72;;;17.72;30.82
6425;BME280;12193;42.642;23.384;2023-04-15T15:38:19;93750.13;;;17.62;30.65
6425;BME280;12193;42.642;23.384;2023-04-15T15:40:51;93755.59;;;17.56;30.96
6425;BME280;12193;42.642;23.384;2023-04-15T15:43:20;93751.31;;;17.25;30.84
6425;BME280;12193;42.642;23.384;2023-04-15T15:45:49;93744.50;;;17.24;31.15
6425;BME280;12193;42.642;23.384;2023-04-15T15:48:20;93753.22;;;17.34;31.02
6425;BME280;12193;42.642;23.384;2023-04-15T15:50:51;93747.44;;;17.32;31.21
6425;BME280;12193;42.642;23.384;2023-04-15T15:53:20;93750.53;;;17.24;31.82
6425;BME280;12193;42.642;23.384;2023-04-15T15:55:53;93753.34;;;17.03;32.06
6425;BME280;12193;42.642;23.384;2023-04-15T15:58:23;93756.28;;;17.11;31.67
6425;BME280;12193;42.642;23.384;2023-04-15T16:00:52;93754.97;;;17.19;31.53
6425;BME280;12193;42.642;23.384;2023-04-15T16:03:22;93754.19;;;17.23;31.64
6425;BME280;12193;42.642;23.384;2023-04-15T16:05:52;93757.66;;;17.29;31.38
6425;BME280;12193;42.642;23.384;2023-04-15T16:08:21;93758.63;;;17.13;31.46
6425;BME280;12193;42.642;23.384;2023-04-15T16:10:53;93747.84;;;17.09;31.44
6425;BME280;12193;42.642;23.384;2023-04-15T16:13:22;93753.66;;;17.16;31.46
6425;BME280;12193;42.642;23.384;2023-04-15T16:15:51;93754.66;;;17.05;31.76
6425;BME280;12193;42.642;23.384;2023-04-15T16:18:21;93748.31;;;16.81;32.21
6425;BME280;12193;42.642;23.384;2023-04-15T16:20:50;93741.13;;;16.62;32.66
6425;BME280;12193;42.642;23.384;2023-04-15T16:23:20;93752.75;;;16.81;32.69